A80 TRACON Summary / KATL TAF
ATL TRACON Summary:
A surface low will gradually track into NC overnight. Several areas of showers and thunderstorms will continue to form northeast of ATL thru the period. Cells will generally move to the northeast at 25-35kts. Expect mostly MVFR/VFR conditions at ATL over night. Surface winds will be west at 5-10kts. Flight Hazards in the TRACON airspace outside of convection: None expected.

Updated: 7/05/2015 7:45 PM
ATL Terminal Aerodrome Forecast:

FTUS80 KATL 060812 AAA
KATL 060809Z 0608/0712 22005KT P6SM FEW010 SCT200
     FM061000 25004KT 4SM BR BKN010
     FM061500 28008KT P6SM BKN012
     FM061700 24010KT P6SM BKN040 PROB30 0619/0623 5SM TSRA
      BKN025CB
     FM070200 28006KT P6SM SCT045 BKN200
     FM070600 29004KT P6SM SCT200
ATL TRACON Area Remark:
None.
Convective Gate Forecast / Icing Gate Forecast / Vertical Wind Profile (click on image to enlarge)
Convective Gate Forecast
Icing Gate Forecast
table with gate forecasts (convective and CCFP) used April - November while icing gate forecasts are issued
AIRMETs & SIGMETS/ Southeast Radar loop / Satellite Image (click on image to enlarge)

Southeast Radar Loop

 



USA.gov is the U.S. government's official web portal to all federal, state and local government web resources and services.